VGTJ weather

Tejgaon Airport
Dhaka, Dhaka Division, Bangladesh

Public forecast

Using degrees Celsius for public forecast. Weather courtesy of forecast.io.

Closest aviation weather report (METAR) to Tejgaon Airport

Closest report is Hazrat Shahjalal International Airport, 4.0 nm (7.3 km) NNE. Retrieved 2020/02/18 06:30 UTC (0 seconds ago):

VGHS 180630Z 25006KT 2500 HZ NSC 28/18 Q1014 BECMG S/VIS 3000M

Closest aviation forecast (TAF) to Tejgaon Airport

Closest forecast is Hazrat Shahjalal International Airport, 4.0 nm (7.3 km) NNE. Retrieved 2020/02/18 06:00 UTC (10 minutes ago):

TAF VGHS 180500Z 1806/1912 28006KT 2500 BR/HZ NSC BECMG 1808/1810 32006KT 3000 HZ NSC BECMG 1823/1901 00000KT 1500 BR SCT012 BECMG 1902/1904 00000KT 2000 BR SCT012 BECMG 1906/1908 30006KT 3000 HZ SCT012